createdAt,value
2018-03-14T00:01:15.044Z,100574.12
2018-03-14T00:03:40.789Z,100569.78
2018-03-14T00:06:07.316Z,100566.75
2018-03-14T00:08:33.075Z,100584.58
2018-03-14T00:10:58.821Z,100577.62
2018-03-14T00:13:24.559Z,100579.36
2018-03-14T00:15:50.308Z,100595.92
2018-03-14T00:18:16.054Z,100586.35
2018-03-14T00:20:41.806Z,100589.39
2018-03-14T00:23:07.565Z,100596.34
2018-03-14T00:25:33.306Z,100595.05
2018-03-14T00:27:59.055Z,100606.81
2018-03-14T00:30:24.817Z,100600.71
2018-03-14T00:32:50.563Z,100602.03
2018-03-14T00:35:16.305Z,100602.02
2018-03-14T00:37:42.086Z,100607.69
2018-03-14T00:40:07.839Z,100598.98
2018-03-14T00:42:33.603Z,100598.98
2018-03-14T00:44:59.367Z,100599.83
2018-03-14T00:47:25.118Z,100605.49
2018-03-14T00:49:50.886Z,100597.67
2018-03-14T00:52:16.636Z,100602.00
2018-03-14T00:54:42.384Z,100604.18
2018-03-14T00:57:08.122Z,100601.57
2018-03-14T00:59:33.866Z,100602.02
2018-03-14T01:01:59.611Z,100610.27
2018-03-14T01:04:25.354Z,100616.37
2018-03-14T01:06:51.103Z,100614.18
2018-03-14T01:09:16.834Z,100616.35
2018-03-14T01:11:42.601Z,100625.07
2018-03-14T01:14:08.349Z,100622.02
2018-03-14T01:16:34.103Z,100625.93
2018-03-14T01:18:59.874Z,100625.48
2018-03-14T01:21:25.689Z,100624.64
2018-03-14T01:23:51.377Z,100627.25
2018-03-14T01:26:17.127Z,100625.95
2018-03-14T01:28:42.870Z,100627.25
2018-03-14T01:31:08.635Z,100630.73
2018-03-14T01:33:34.366Z,100628.55
2018-03-14T01:36:00.105Z,100633.77
2018-03-14T01:38:25.861Z,100637.69
2018-03-14T01:40:51.616Z,100630.30
2018-03-14T01:43:17.443Z,100634.64
2018-03-14T01:45:43.210Z,100634.22
2018-03-14T01:48:08.967Z,100635.52
2018-03-14T01:50:34.713Z,100640.32
2018-03-14T01:53:12.958Z,100645.09
2018-03-14T01:55:38.690Z,100642.50
2018-03-14T01:58:04.434Z,100645.53
2018-03-14T02:00:30.169Z,100649.91
2018-03-14T02:02:55.933Z,100653.81
2018-03-14T02:05:21.684Z,100652.09
2018-03-14T02:07:47.424Z,100653.38
2018-03-14T02:10:13.161Z,100649.47
2018-03-14T02:12:38.921Z,100652.51
2018-03-14T02:15:04.658Z,100663.84
2018-03-14T02:17:30.417Z,100662.97
2018-03-14T02:19:56.158Z,100662.52
2018-03-14T02:22:21.907Z,100669.91
2018-03-14T02:24:47.645Z,100665.14
2018-03-14T02:27:13.394Z,100677.75
2018-03-14T02:29:39.178Z,100676.03
2018-03-14T02:32:04.944Z,100674.28
2018-03-14T02:34:30.695Z,100682.98
2018-03-14T02:37:00.327Z,100683.42
2018-03-14T02:39:26.086Z,100689.10
2018-03-14T02:41:51.840Z,100690.39
2018-03-14T02:44:17.600Z,100695.63
2018-03-14T02:46:43.344Z,100698.66
2018-03-14T02:49:09.114Z,100706.06
2018-03-14T02:51:34.857Z,100705.63
2018-03-14T02:54:00.592Z,100707.38
2018-03-14T02:56:26.321Z,100706.94
2018-03-14T02:58:52.077Z,100709.53
2018-03-14T03:01:17.813Z,100716.95
2018-03-14T03:03:43.554Z,100723.05
2018-03-14T03:06:09.286Z,100719.12
2018-03-14T03:08:35.031Z,100721.30
2018-03-14T03:11:00.779Z,100717.35
2018-03-14T03:13:26.514Z,100724.75
2018-03-14T03:15:52.253Z,100726.50
2018-03-14T03:18:18.026Z,100724.33
2018-03-14T03:20:43.761Z,100729.97
2018-03-14T03:23:09.486Z,100725.18
2018-03-14T03:25:35.225Z,100725.17
2018-03-14T03:28:00.950Z,100737.40
2018-03-14T03:30:26.686Z,100743.48
2018-03-14T03:32:52.417Z,100746.94
2018-03-14T03:35:18.151Z,100748.25
2018-03-14T03:37:43.882Z,100756.97
2018-03-14T03:40:09.625Z,100759.57
2018-03-14T03:42:35.348Z,100762.17
2018-03-14T03:45:01.090Z,100769.57
2018-03-14T03:47:26.850Z,100771.31
2018-03-14T03:49:52.613Z,100769.16
2018-03-14T03:52:18.362Z,100776.11
2018-03-14T03:54:44.135Z,100774.36
2018-03-14T03:57:09.870Z,100780.03
2018-03-14T03:59:35.620Z,100784.38
2018-03-14T04:02:01.354Z,100789.61
2018-03-14T04:04:27.081Z,100793.50
2018-03-14T04:06:52.830Z,100795.70
2018-03-14T04:09:18.562Z,100802.67
2018-03-14T04:11:44.306Z,100800.92
2018-03-14T04:14:10.043Z,100806.16
2018-03-14T04:16:35.802Z,100799.61
2018-03-14T04:19:01.559Z,100803.06
2018-03-14T04:21:27.326Z,100804.81
2018-03-14T04:23:53.120Z,100810.91
2018-03-14T04:26:18.843Z,100813.95
2018-03-14T04:28:44.598Z,100810.45
2018-03-14T04:31:10.358Z,100821.78
2018-03-14T04:33:36.114Z,100814.39
2018-03-14T04:36:01.883Z,100823.09
2018-03-14T04:38:27.634Z,100830.88
2018-03-14T04:40:53.409Z,100830.00
2018-03-14T04:43:19.149Z,100831.31
2018-03-14T04:45:44.900Z,100833.95
2018-03-14T04:48:10.658Z,100830.00
2018-03-14T04:50:36.413Z,100829.15
2018-03-14T04:53:02.184Z,100834.37
2018-03-14T04:55:27.946Z,100837.39
2018-03-14T04:57:53.702Z,100841.34
2018-03-14T05:00:19.460Z,100839.15
2018-03-14T05:02:45.214Z,100837.42
2018-03-14T05:05:10.962Z,100840.02
2018-03-14T05:07:36.706Z,100843.50
2018-03-14T05:10:02.450Z,100847.41
2018-03-14T05:12:28.203Z,100851.36
2018-03-14T05:14:53.941Z,100851.80
2018-03-14T05:17:19.694Z,100855.70
2018-03-14T05:19:45.417Z,100852.20
2018-03-14T05:22:11.158Z,100860.11
2018-03-14T05:24:36.877Z,100858.77
2018-03-14T05:27:02.627Z,100864.00
2018-03-14T05:29:28.358Z,100872.20
2018-03-14T05:31:54.097Z,100869.61
2018-03-14T05:34:19.848Z,100872.19
2018-03-14T05:36:45.588Z,100883.52
2018-03-14T05:39:11.331Z,100883.92
2018-03-14T05:41:37.053Z,100885.63
2018-03-14T05:44:02.790Z,100887.36
2018-03-14T05:46:28.527Z,100893.02
2018-03-14T05:48:54.266Z,100894.34
2018-03-14T05:51:19.978Z,100897.36
2018-03-14T05:53:45.713Z,100896.47
2018-03-14T05:56:11.453Z,100895.59
2018-03-14T05:58:37.205Z,100902.99
2018-03-14T06:01:02.934Z,100902.09
2018-03-14T06:03:28.658Z,100909.92
2018-03-14T06:05:54.386Z,100909.95
2018-03-14T06:08:20.115Z,100906.89
2018-03-14T06:10:45.849Z,100917.73
2018-03-14T06:13:11.590Z,100923.02
2018-03-14T06:15:37.331Z,100924.31
2018-03-14T06:18:03.062Z,100924.77
2018-03-14T06:20:28.785Z,100932.98
2018-03-14T06:22:54.510Z,100928.66
2018-03-14T06:25:20.243Z,100929.98
2018-03-14T06:27:45.975Z,100928.70
2018-03-14T06:30:11.722Z,100933.08
2018-03-14T06:32:37.512Z,100933.98
2018-03-14T06:35:03.214Z,100939.22
2018-03-14T06:37:28.936Z,100945.28
2018-03-14T06:39:54.674Z,100946.19
2018-03-14T06:42:20.415Z,100947.92
2018-03-14T06:44:46.150Z,100953.23
2018-03-14T06:47:11.886Z,100949.36
2018-03-14T06:49:37.626Z,100951.89
2018-03-14T06:52:03.358Z,100949.27
2018-03-14T06:54:29.099Z,100961.03
2018-03-14T06:56:54.857Z,100965.84
2018-03-14T06:59:33.047Z,100963.23
2018-03-14T07:02:11.225Z,100968.89
2018-03-14T07:04:44.035Z,100965.28
2018-03-14T07:07:09.770Z,100971.36
2018-03-14T07:09:35.515Z,100977.91
2018-03-14T07:12:01.245Z,100981.02
2018-03-14T07:14:27.011Z,100980.23
2018-03-14T07:16:52.786Z,100979.83
2018-03-14T07:19:18.538Z,100988.20
2018-03-14T07:21:44.294Z,100992.78
2018-03-14T07:24:10.047Z,100995.36
2018-03-14T07:26:35.787Z,100989.66
2018-03-14T07:29:01.523Z,100992.56
2018-03-14T07:31:27.282Z,100992.70
2018-03-14T07:33:53.014Z,100992.58
2018-03-14T07:36:18.742Z,100992.67
2018-03-14T07:38:44.491Z,101000.81
2018-03-14T07:41:10.242Z,100999.09
2018-03-14T07:43:36.006Z,100999.98
2018-03-14T07:46:01.735Z,101004.81
2018-03-14T07:48:27.462Z,101002.63
2018-03-14T07:50:53.198Z,101004.47
2018-03-14T07:53:19.033Z,101009.72
2018-03-14T07:55:44.860Z,101011.05
2018-03-14T07:58:10.604Z,101010.05
2018-03-14T08:00:36.333Z,101017.94
2018-03-14T08:03:02.066Z,101012.75
2018-03-14T08:05:27.802Z,101012.30
2018-03-14T08:07:53.568Z,101011.89
2018-03-14T08:10:19.345Z,101011.45
2018-03-14T08:12:45.086Z,101014.10
2018-03-14T08:15:10.824Z,101015.47
2018-03-14T08:17:36.562Z,101010.23
2018-03-14T08:20:02.309Z,101012.84
2018-03-14T08:22:28.054Z,101021.13
2018-03-14T08:24:53.783Z,101027.63
2018-03-14T08:27:19.506Z,101028.11
2018-03-14T08:29:45.245Z,101031.17
2018-03-14T08:32:10.978Z,101031.05
2018-03-14T08:34:36.706Z,101034.82
2018-03-14T08:37:02.437Z,101039.57
2018-03-14T08:39:28.183Z,101036.92
2018-03-14T08:41:53.919Z,101037.14
2018-03-14T08:44:19.663Z,101034.61
2018-03-14T08:46:45.382Z,101040.40
2018-03-14T08:49:11.136Z,101042.94
2018-03-14T08:51:36.865Z,101042.42
2018-03-14T08:54:02.598Z,101036.73
2018-03-14T08:56:28.328Z,101044.67
2018-03-14T08:58:54.067Z,101047.70
2018-03-14T09:01:19.809Z,101050.31
2018-03-14T09:03:45.542Z,101051.64
2018-03-14T09:06:11.280Z,101048.64
2018-03-14T09:08:37.018Z,101065.70
2018-03-14T09:11:02.773Z,101059.99
2018-03-14T09:13:28.533Z,101069.98
2018-03-14T09:15:54.307Z,101067.87
2018-03-14T09:18:20.048Z,101070.86
2018-03-14T09:20:45.800Z,101071.86
2018-03-14T09:23:11.546Z,101078.32
2018-03-14T09:25:37.303Z,101083.11
2018-03-14T09:28:03.055Z,101080.03
2018-03-14T09:30:28.802Z,101080.08
2018-03-14T09:32:54.548Z,101078.72
2018-03-14T09:35:20.298Z,101089.18
2018-03-14T09:37:46.049Z,101084.08
2018-03-14T09:40:11.849Z,101090.64
2018-03-14T09:42:37.555Z,101081.95
2018-03-14T09:45:03.319Z,101092.80
2018-03-14T09:47:29.046Z,101094.21
2018-03-14T09:49:54.806Z,101086.75
2018-03-14T09:52:20.545Z,101087.69
2018-03-14T09:54:46.289Z,101088.50
2018-03-14T09:57:12.085Z,101092.93
2018-03-14T09:59:37.806Z,101101.22
2018-03-14T10:02:03.558Z,101097.66
2018-03-14T10:04:29.318Z,101100.39
2018-03-14T10:06:55.065Z,101104.43
2018-03-14T10:09:20.798Z,101112.68
2018-03-14T10:11:46.541Z,101111.42
2018-03-14T10:14:12.287Z,101111.87
2018-03-14T10:16:38.033Z,101110.06
2018-03-14T10:19:03.782Z,101105.73
2018-03-14T10:21:29.543Z,101107.09
2018-03-14T10:23:55.299Z,101114.48
2018-03-14T10:26:21.046Z,101117.92
2018-03-14T10:28:46.787Z,101121.41
2018-03-14T10:31:12.546Z,101122.66
2018-03-14T10:33:38.298Z,101123.62
2018-03-14T10:36:04.071Z,101121.54
2018-03-14T10:38:29.810Z,101126.34
2018-03-14T10:40:55.603Z,101119.36
2018-03-14T10:43:21.365Z,101129.78
2018-03-14T10:45:47.075Z,101127.17
2018-03-14T10:48:12.814Z,101129.34
2018-03-14T10:50:38.555Z,101125.77
2018-03-14T10:53:04.294Z,101126.30
2018-03-14T10:55:30.047Z,101131.09
2018-03-14T10:57:55.806Z,101131.19
2018-03-14T11:00:26.594Z,101127.17
2018-03-14T11:02:52.389Z,101121.06
2018-03-14T11:05:18.151Z,101131.08
2018-03-14T11:07:43.923Z,101126.33
2018-03-14T11:10:09.679Z,101129.75
2018-03-14T11:12:35.426Z,101126.76
2018-03-14T11:15:01.165Z,101130.29
2018-03-14T11:17:26.915Z,101129.86
2018-03-14T11:19:52.658Z,101125.45
2018-03-14T11:22:18.405Z,101126.39
2018-03-14T11:24:44.150Z,101129.44
2018-03-14T11:27:09.899Z,101117.64
2018-03-14T11:29:35.636Z,101111.98
2018-03-14T11:32:01.370Z,101115.03
2018-03-14T11:34:27.114Z,101118.12
2018-03-14T11:36:52.850Z,101117.67
2018-03-14T11:39:18.597Z,101112.00
2018-03-14T11:41:44.334Z,101115.50
2018-03-14T11:44:10.112Z,101115.50
2018-03-14T11:46:35.880Z,101114.62
2018-03-14T11:49:01.646Z,101120.74
2018-03-14T11:51:27.393Z,101119.43
2018-03-14T11:53:53.138Z,101120.33
2018-03-14T11:56:18.905Z,101118.13
2018-03-14T11:58:44.671Z,101112.45
2018-03-14T12:01:10.422Z,101120.31
2018-03-14T12:03:36.178Z,101118.55
2018-03-14T12:06:01.927Z,101122.49
2018-03-14T12:08:27.687Z,101122.95
2018-03-14T12:10:53.437Z,101118.48
2018-03-14T12:13:19.223Z,101121.17
2018-03-14T12:15:44.970Z,101118.52
2018-03-14T12:18:10.719Z,101125.13
2018-03-14T12:20:36.483Z,101120.75
2018-03-14T12:23:02.233Z,101111.94
2018-03-14T12:25:28.006Z,101115.45
2018-03-14T12:27:53.771Z,101118.97
2018-03-14T12:30:19.530Z,101117.19
2018-03-14T12:32:45.294Z,101112.36
2018-03-14T12:35:11.038Z,101110.66
2018-03-14T12:37:36.803Z,101116.80
2018-03-14T12:40:02.620Z,101115.49
2018-03-14T12:42:28.327Z,101113.32
2018-03-14T12:44:54.091Z,101113.33
2018-03-14T12:47:19.838Z,101114.20
2018-03-14T12:49:45.606Z,101105.45
2018-03-14T12:52:11.355Z,101108.51
2018-03-14T12:54:37.108Z,101106.34
2018-03-14T12:57:02.855Z,101111.13
2018-03-14T12:59:28.618Z,101120.31
2018-03-14T13:01:54.370Z,101110.27
2018-03-14T13:04:20.145Z,101114.17
2018-03-14T13:06:45.898Z,101112.44
2018-03-14T13:09:11.662Z,101104.56
2018-03-14T13:11:37.435Z,101107.20
2018-03-14T13:14:03.137Z,101104.59
2018-03-14T13:16:28.883Z,101109.38
2018-03-14T13:18:54.628Z,101100.17
2018-03-14T13:21:20.383Z,101101.52
2018-03-14T13:23:46.105Z,101095.77
2018-03-14T13:26:11.852Z,101098.42
2018-03-14T13:28:37.584Z,101100.20
2018-03-14T13:31:03.331Z,101097.56
2018-03-14T13:33:29.058Z,101104.98
2018-03-14T13:35:54.790Z,101104.14
2018-03-14T13:38:20.519Z,101096.27
2018-03-14T13:40:46.258Z,101097.56
2018-03-14T13:43:12.011Z,101105.88
2018-03-14T13:45:37.766Z,101097.11
2018-03-14T13:48:03.497Z,101104.08
2018-03-14T13:50:29.238Z,101108.89
2018-03-14T13:52:54.977Z,101110.67
2018-03-14T13:55:20.714Z,101106.75
2018-03-14T13:57:46.442Z,101103.23
2018-03-14T14:00:12.187Z,101109.83
2018-03-14T14:02:37.906Z,101106.75
2018-03-14T14:05:03.640Z,101106.33
2018-03-14T14:07:29.371Z,101106.31
2018-03-14T14:09:55.101Z,101116.38
2018-03-14T14:12:20.841Z,101111.58
2018-03-14T14:14:46.569Z,101108.91
2018-03-14T14:17:12.293Z,101104.56
2018-03-14T14:19:38.017Z,101098.89
2018-03-14T14:22:03.767Z,101104.13
2018-03-14T14:24:29.495Z,101099.33
2018-03-14T14:26:55.227Z,101104.98
2018-03-14T14:29:21.014Z,101110.69
2018-03-14T14:31:46.918Z,101108.05
2018-03-14T14:34:12.653Z,101103.69
2018-03-14T14:36:38.403Z,101096.72
2018-03-14T14:39:04.121Z,101098.47
2018-03-14T14:41:29.901Z,101094.09
2018-03-14T14:43:55.614Z,101095.42
2018-03-14T14:46:21.437Z,101097.58
2018-03-14T14:48:47.181Z,101098.05
2018-03-14T14:51:12.910Z,101098.90
2018-03-14T14:53:38.665Z,101103.72
2018-03-14T14:56:04.430Z,101098.45
2018-03-14T14:58:30.186Z,101100.20
2018-03-14T15:00:55.945Z,101095.83
2018-03-14T15:03:21.706Z,101090.59
2018-03-14T15:05:47.466Z,101097.60
2018-03-14T15:08:13.266Z,101092.34
2018-03-14T15:10:38.947Z,101086.22
2018-03-14T15:13:04.690Z,101086.23
2018-03-14T15:15:30.432Z,101078.80
2018-03-14T15:17:56.182Z,101080.13
2018-03-14T15:20:21.924Z,101072.25
2018-03-14T15:22:47.663Z,101078.34
2018-03-14T15:25:13.391Z,101080.97
2018-03-14T15:27:39.158Z,101082.30
2018-03-14T15:30:04.898Z,101088.37
2018-03-14T15:32:30.643Z,101078.36
2018-03-14T15:34:56.385Z,101079.21
2018-03-14T15:37:22.126Z,101082.73
2018-03-14T15:39:47.875Z,101085.77
2018-03-14T15:42:13.635Z,101080.08
2018-03-14T15:44:39.412Z,101076.60
2018-03-14T15:47:05.171Z,101074.84
2018-03-14T15:49:30.924Z,101078.34
2018-03-14T15:51:56.672Z,101070.47
2018-03-14T15:54:22.422Z,101073.48
2018-03-14T15:56:48.167Z,101074.81
2018-03-14T15:59:13.934Z,101066.05
2018-03-14T16:01:39.670Z,101073.05
2018-03-14T16:04:05.426Z,101081.33
2018-03-14T16:06:31.177Z,101083.10
2018-03-14T16:08:56.918Z,101077.87
2018-03-14T16:11:22.650Z,101075.69
2018-03-14T16:13:48.395Z,101079.61
2018-03-14T16:16:14.126Z,101090.53
2018-03-14T16:18:39.855Z,101087.44
2018-03-14T16:21:05.610Z,101085.27
2018-03-14T16:23:31.357Z,101086.97
2018-03-14T16:25:57.116Z,101077.34
2018-03-14T16:28:22.915Z,101080.87
2018-03-14T16:30:48.631Z,101076.92
2018-03-14T16:33:14.383Z,101073.86
2018-03-14T16:35:41.095Z,101076.05
2018-03-14T16:38:06.827Z,101076.50
2018-03-14T16:40:32.570Z,101074.33
2018-03-14T16:42:58.305Z,101072.11
2018-03-14T16:45:24.062Z,101083.46
2018-03-14T16:47:49.790Z,101086.45
2018-03-14T16:50:15.564Z,101090.82
2018-03-14T16:52:41.274Z,101090.42
2018-03-14T16:55:07.019Z,101089.11
2018-03-14T16:57:32.754Z,101085.61
2018-03-14T16:59:58.501Z,101077.77
2018-03-14T17:02:24.230Z,101089.52
2018-03-14T17:04:49.999Z,101086.89
2018-03-14T17:07:15.698Z,101088.63
2018-03-14T17:09:41.443Z,101095.58
2018-03-14T17:12:07.185Z,101096.05
2018-03-14T17:14:32.926Z,101102.55
2018-03-14T17:16:58.676Z,101096.84
2018-03-14T17:19:24.409Z,101102.94
2018-03-14T17:21:50.157Z,101097.72
2018-03-14T17:24:15.891Z,101098.22
2018-03-14T17:26:41.638Z,101095.13
2018-03-14T17:29:07.368Z,101093.39
2018-03-14T17:31:33.207Z,101087.27
2018-03-14T17:33:58.914Z,101090.31
2018-03-14T17:36:24.687Z,101088.16
2018-03-14T17:38:50.387Z,101094.67
2018-03-14T17:41:16.114Z,101082.91
2018-03-14T17:43:41.886Z,101087.22
2018-03-14T17:46:07.650Z,101079.33
2018-03-14T17:48:33.414Z,101076.27
2018-03-14T17:50:59.154Z,101075.34
2018-03-14T17:53:24.909Z,101072.26
2018-03-14T17:55:50.678Z,101075.38
2018-03-14T17:58:16.382Z,101063.59
2018-03-14T18:00:42.153Z,101065.74
2018-03-14T18:03:07.894Z,101062.28
2018-03-14T18:05:33.660Z,101067.06
2018-03-14T18:07:59.402Z,101061.22
2018-03-14T18:10:25.148Z,101066.05
2018-03-14T18:12:50.992Z,101067.75
2018-03-14T18:15:16.852Z,101067.73
2018-03-14T18:17:42.558Z,101067.31
2018-03-14T18:20:08.305Z,101062.89
2018-03-14T18:22:34.062Z,101071.61
2018-03-14T18:24:59.796Z,101063.70
2018-03-14T18:27:25.611Z,101064.19
2018-03-14T18:29:51.310Z,101061.86
2018-03-14T18:32:17.050Z,101063.21
2018-03-14T18:34:42.799Z,101063.67
2018-03-14T18:37:08.542Z,101065.03
2018-03-14T18:39:34.281Z,101059.37
2018-03-14T18:42:00.010Z,101048.82
2018-03-14T18:44:25.777Z,101054.96
2018-03-14T18:46:51.523Z,101048.94
2018-03-14T18:49:17.253Z,101052.84
2018-03-14T18:51:42.987Z,101058.48
2018-03-14T18:54:08.731Z,101061.99
2018-03-14T18:56:34.461Z,101055.92
2018-03-14T18:59:00.221Z,101060.27
2018-03-14T19:01:25.977Z,101062.81
2018-03-14T19:03:51.751Z,101065.00
2018-03-14T19:06:17.499Z,101065.05
2018-03-14T19:08:43.250Z,101067.66
2018-03-14T19:11:09.002Z,101065.05
2018-03-14T19:13:34.748Z,101068.99
2018-03-14T19:16:00.483Z,101065.09
2018-03-14T19:18:26.223Z,101062.02
2018-03-14T19:20:51.978Z,101063.32
2018-03-14T19:23:17.738Z,101058.95
2018-03-14T19:25:43.475Z,101056.77
2018-03-14T19:28:09.207Z,101064.16
2018-03-14T19:30:34.950Z,101063.31
2018-03-14T19:33:00.697Z,101062.45
2018-03-14T19:35:26.467Z,101062.03
2018-03-14T19:37:52.198Z,101062.84
2018-03-14T19:40:17.945Z,101059.84
2018-03-14T19:42:43.682Z,101058.10
2018-03-14T19:45:09.422Z,101064.63
2018-03-14T19:47:35.142Z,101066.83
2018-03-14T19:50:00.954Z,101068.54
2018-03-14T19:52:26.645Z,101071.59
2018-03-14T19:54:52.365Z,101072.02
2018-03-14T19:57:18.107Z,101067.66
2018-03-14T19:59:43.832Z,101066.34
2018-03-14T20:02:09.566Z,101062.87
2018-03-14T20:04:35.709Z,101069.38
2018-03-14T20:07:01.876Z,101066.37
2018-03-14T20:09:27.949Z,101059.80
2018-03-14T20:11:53.959Z,101058.08
2018-03-14T20:14:19.819Z,101053.28
2018-03-14T20:16:47.366Z,101055.91
2018-03-14T20:19:13.169Z,101055.86
2018-03-14T20:21:38.965Z,101052.35
2018-03-14T20:24:04.694Z,101061.48
2018-03-14T20:26:30.474Z,101062.34
2018-03-14T20:28:56.203Z,101067.63
2018-03-14T20:31:21.959Z,101068.88
2018-03-14T20:33:47.702Z,101070.17
2018-03-14T20:36:13.788Z,101063.21
2018-03-14T20:38:39.856Z,101060.63
2018-03-14T20:41:06.018Z,101065.42
2018-03-14T20:43:33.032Z,101060.64
2018-03-14T20:45:58.976Z,101067.18
2018-03-14T20:48:24.974Z,101063.64
2018-03-14T20:50:51.019Z,101060.61
2018-03-14T20:53:17.089Z,101056.25
2018-03-14T20:55:42.838Z,101062.30
2018-03-14T20:58:08.566Z,101059.69
2018-03-14T21:00:34.285Z,101054.13
2018-03-14T21:03:00.397Z,101063.18
2018-03-14T21:05:26.584Z,101058.02
2018-03-14T21:07:52.647Z,101055.33
2018-03-14T21:10:18.874Z,101061.86
2018-03-14T21:12:44.696Z,101054.48
2018-03-14T21:15:10.422Z,101055.39
2018-03-14T21:17:36.370Z,101052.73
2018-03-14T21:20:02.363Z,101054.91
2018-03-14T21:22:28.293Z,101051.89
2018-03-14T21:24:55.334Z,101058.38
2018-03-14T21:27:21.241Z,101056.67
2018-03-14T21:29:46.982Z,101050.55
2018-03-14T21:32:12.851Z,101050.57
2018-03-14T21:34:38.613Z,101051.36
2018-03-14T21:37:04.374Z,101051.80
2018-03-14T21:39:30.072Z,101044.45
2018-03-14T21:41:56.039Z,101038.73
2018-03-14T21:44:21.855Z,101032.16
2018-03-14T21:46:48.534Z,101034.38
2018-03-14T21:49:14.298Z,101036.52
2018-03-14T21:51:40.287Z,101034.41
2018-03-14T21:54:06.034Z,101037.41
2018-03-14T21:56:31.754Z,101051.80
2018-03-14T21:58:57.505Z,101052.27
2018-03-14T22:01:23.244Z,101056.61
2018-03-14T22:03:49.308Z,101051.36
2018-03-14T22:06:15.312Z,101050.89
2018-03-14T22:08:41.239Z,101049.12
2018-03-14T22:11:07.377Z,101044.73
2018-03-14T22:13:35.255Z,101043.43
2018-03-14T22:16:01.018Z,101044.71
2018-03-14T22:18:27.043Z,101040.39
2018-03-14T22:20:53.015Z,101037.34
2018-03-14T22:23:19.319Z,101036.05
2018-03-14T22:25:45.070Z,101028.62
2018-03-14T22:28:11.227Z,101028.22
2018-03-14T22:30:37.492Z,101028.62
2018-03-14T22:33:03.237Z,101026.02
2018-03-14T22:35:29.044Z,101030.78
2018-03-14T22:37:54.790Z,101032.52
2018-03-14T22:40:20.570Z,101028.59
2018-03-14T22:42:46.303Z,101025.11
2018-03-14T22:45:12.071Z,101019.44
2018-03-14T22:47:37.827Z,101022.91
2018-03-14T22:50:03.901Z,101018.11
2018-03-14T22:52:29.637Z,101022.86
2018-03-14T22:54:55.380Z,101020.69
2018-03-14T22:57:21.115Z,101023.78
2018-03-14T22:59:46.859Z,101024.63
2018-03-14T23:02:12.594Z,101027.23
2018-03-14T23:04:38.322Z,101026.29
2018-03-14T23:07:04.065Z,101022.84
2018-03-14T23:09:29.789Z,101021.94
2018-03-14T23:11:55.529Z,101017.63
2018-03-14T23:14:21.277Z,101013.25
2018-03-14T23:16:47.433Z,101008.95
2018-03-14T23:19:13.169Z,101014.58
2018-03-14T23:21:38.922Z,101009.80
2018-03-14T23:24:04.664Z,101014.54
2018-03-14T23:26:30.400Z,101012.78
2018-03-14T23:28:56.142Z,101014.55
2018-03-14T23:31:23.103Z,101010.69
2018-03-14T23:33:49.322Z,101014.94
2018-03-14T23:36:15.054Z,101013.16
2018-03-14T23:38:41.958Z,101017.96
2018-03-14T23:41:08.706Z,101013.59
2018-03-14T23:43:34.430Z,101021.43
2018-03-14T23:46:00.192Z,101017.43
2018-03-14T23:48:25.959Z,101012.23
2018-03-14T23:50:51.910Z,101010.05
2018-03-14T23:53:17.645Z,101011.33
2018-03-14T23:55:43.564Z,101016.11
2018-03-14T23:58:09.301Z,101020.48
